Aérodrome :
LOGIN :

S'inscrire | Disclaimer

   EN    FR    IT 

 










Légende :    VFR   VFR Marginal   IFR   IFR Intensif   IFR Très Intensif
Visi : 
Plafond : 
>= 8 km
>= 3000ft
5 à 8 km
1000 à 3000 ft
1500m à 5 km
500 à 1000 ft
800 à 1500m
200 à 500 ft
< 800m
< 200 ft
Symboles :   Orages  Brouillard  Fortes neiges  Fortes précipitations  Vent > 20 kt
SIGMETs :   Divers  Orages  Givrage  Turbulence  Onde Orograph.  Cendres Volcan.






- Altitude de l'aérodrome : 121 ft
- Code IATA : HUY


EGNJ - Humberside

DERNIER METAR :
  • 121320Z 14015KT 9000 -RA SCT009 BKN030 06/05 Q0983

METARs EXPIRÉS :
  • 121250Z 15018KT 9000 -RA SCT010 BKN028 06/05 Q0984
  • 121220Z 15017KT 9000 -RA FEW010 SCT021 BKN030 06/04 Q0985
  • 121150Z 15017KT 9000 -RA FEW019 SCT024 BKN032 05/04 Q0986
  • 121120Z 16016KT 9000 -RA FEW020 BKN029 04/03 Q0987
  • 121050Z 17018KT 9000 -RA FEW023 BKN031 04/03 Q0989

TAF TAF EGNJ
Valide du 12 à 12h jusqu'au 12 à 21h UTC


121059Z 1212/1221 14013KT 9999 SCT012
TEMPO 1212/1219 6000 RA BKN012
PROB40
TEMPO 1212/1218 3000 RADZ BKN009
BECMG 1216/1219 20008KT
PROB40
TEMPO 1219/1221 8000 SHRA BKN014
ATIS : +44 1652 682 020



MET'MAP, la Météo Aéronautique d'un coup d'oeil ! - Copyright ORBIFLY Décembre 2007 - Disclaimer

ORBIFLY MET'MAP TEAM :

Programmation & Développement : Alexandra Zaïnal
Sur une idée originale de : Baudouin d'Aumeries
Assistance à la programmation : Marc-Olivier Méhu
Soutien technique & logistique : Manuel Goepfert

Contact : metmap@orbifly.com




SOURCES & CREDITS :

   NOAA